sensor_id;sensor_type;location;lat;lon;timestamp;P1;durP1;ratioP1;P2;durP2;ratioP2
57846;SDS011;43675;50.030;21.952;2022-12-05T00:00:12;34.30;;;30.57;;
57846;SDS011;43675;50.030;21.952;2022-12-05T00:02:41;36.83;;;32.83;;
57846;SDS011;43675;50.030;21.952;2022-12-05T00:05:14;36.63;;;32.70;;
57846;SDS011;43675;50.030;21.952;2022-12-05T00:07:39;38.23;;;34.23;;
57846;SDS011;43675;50.030;21.952;2022-12-05T00:10:05;39.58;;;34.67;;
57846;SDS011;43675;50.030;21.952;2022-12-05T00:12:32;39.85;;;35.65;;
57846;SDS011;43675;50.030;21.952;2022-12-05T00:15:04;41.65;;;36.35;;
57846;SDS011;43675;50.030;21.952;2022-12-05T00:17:31;39.38;;;35.03;;
57846;SDS011;43675;50.030;21.952;2022-12-05T00:19:57;39.78;;;35.48;;
57846;SDS011;43675;50.030;21.952;2022-12-05T00:22:23;39.20;;;35.25;;
57846;SDS011;43675;50.030;21.952;2022-12-05T00:24:48;41.13;;;36.63;;
57846;SDS011;43675;50.030;21.952;2022-12-05T00:27:14;42.08;;;36.45;;
57846;SDS011;43675;50.030;21.952;2022-12-05T00:29:40;40.10;;;35.88;;
57846;SDS011;43675;50.030;21.952;2022-12-05T00:32:05;40.17;;;35.83;;
57846;SDS011;43675;50.030;21.952;2022-12-05T00:34:31;40.58;;;35.65;;
57846;SDS011;43675;50.030;21.952;2022-12-05T00:36:57;41.13;;;36.50;;
57846;SDS011;43675;50.030;21.952;2022-12-05T00:39:22;39.65;;;35.48;;
57846;SDS011;43675;50.030;21.952;2022-12-05T00:41:48;39.23;;;35.10;;
57846;SDS011;43675;50.030;21.952;2022-12-05T00:44:13;39.88;;;35.52;;
57846;SDS011;43675;50.030;21.952;2022-12-05T00:46:39;39.98;;;35.60;;
57846;SDS011;43675;50.030;21.952;2022-12-05T00:49:06;39.05;;;34.67;;
57846;SDS011;43675;50.030;21.952;2022-12-05T00:51:37;40.78;;;36.40;;
57846;SDS011;43675;50.030;21.952;2022-12-05T00:54:12;40.48;;;35.95;;
57846;SDS011;43675;50.030;21.952;2022-12-05T00:56:39;44.38;;;36.83;;
57846;SDS011;43675;50.030;21.952;2022-12-05T00:59:06;42.85;;;37.00;;
57846;SDS011;43675;50.030;21.952;2022-12-05T01:01:37;39.65;;;35.13;;
57846;SDS011;43675;50.030;21.952;2022-12-05T01:04:03;40.75;;;36.40;;
57846;SDS011;43675;50.030;21.952;2022-12-05T01:06:38;40.43;;;35.17;;
57846;SDS011;43675;50.030;21.952;2022-12-05T01:09:04;40.12;;;35.83;;
57846;SDS011;43675;50.030;21.952;2022-12-05T01:11:31;38.65;;;34.55;;
57846;SDS011;43675;50.030;21.952;2022-12-05T01:13:57;39.15;;;34.95;;
57846;SDS011;43675;50.030;21.952;2022-12-05T01:16:30;41.98;;;36.70;;
57846;SDS011;43675;50.030;21.952;2022-12-05T01:19:00;40.10;;;34.05;;
57846;SDS011;43675;50.030;21.952;2022-12-05T01:21:23;39.23;;;34.92;;
57846;SDS011;43675;50.030;21.952;2022-12-05T01:23:49;39.08;;;34.95;;
57846;SDS011;43675;50.030;21.952;2022-12-05T01:26:22;40.83;;;35.83;;
57846;SDS011;43675;50.030;21.952;2022-12-05T01:28:55;40.85;;;36.45;;
57846;SDS011;43675;50.030;21.952;2022-12-05T01:31:25;40.78;;;36.30;;
57846;SDS011;43675;50.030;21.952;2022-12-05T01:33:53;39.60;;;35.45;;
57846;SDS011;43675;50.030;21.952;2022-12-05T01:36:21;40.78;;;35.55;;
57846;SDS011;43675;50.030;21.952;2022-12-05T01:38:47;40.12;;;35.75;;
57846;SDS011;43675;50.030;21.952;2022-12-05T01:41:15;41.20;;;35.90;;
57846;SDS011;43675;50.030;21.952;2022-12-05T01:43:56;38.20;;;34.18;;
57846;SDS011;43675;50.030;21.952;2022-12-05T01:46:20;38.28;;;34.25;;
57846;SDS011;43675;50.030;21.952;2022-12-05T01:48:45;38.08;;;33.92;;
57846;SDS011;43675;50.030;21.952;2022-12-05T01:51:11;37.95;;;33.92;;
57846;SDS011;43675;50.030;21.952;2022-12-05T01:53:44;38.75;;;34.35;;
57846;SDS011;43675;50.030;21.952;2022-12-05T01:56:10;39.67;;;34.55;;
57846;SDS011;43675;50.030;21.952;2022-12-05T01:58:37;38.50;;;33.67;;
57846;SDS011;43675;50.030;21.952;2022-12-05T02:01:06;37.83;;;33.60;;
57846;SDS011;43675;50.030;21.952;2022-12-05T02:03:31;38.83;;;34.35;;
57846;SDS011;43675;50.030;21.952;2022-12-05T02:05:58;39.42;;;33.75;;
57846;SDS011;43675;50.030;21.952;2022-12-05T02:08:26;37.33;;;32.58;;
57846;SDS011;43675;50.030;21.952;2022-12-05T02:10:53;37.23;;;33.28;;
57846;SDS011;43675;50.030;21.952;2022-12-05T02:13:37;38.92;;;33.63;;
57846;SDS011;43675;50.030;21.952;2022-12-05T02:24:46;43.00;;;36.35;;
57846;SDS011;43675;50.030;21.952;2022-12-05T02:30:10;36.73;;;32.73;;
57846;SDS011;43675;50.030;21.952;2022-12-05T02:38:35;37.25;;;33.23;;
57846;SDS011;43675;50.030;21.952;2022-12-05T02:43:52;39.08;;;34.35;;
57846;SDS011;43675;50.030;21.952;2022-12-05T02:46:24;39.18;;;33.88;;
57846;SDS011;43675;50.030;21.952;2022-12-05T02:48:54;36.77;;;32.78;;
57846;SDS011;43675;50.030;21.952;2022-12-05T02:51:30;36.45;;;32.17;;
57846;SDS011;43675;50.030;21.952;2022-12-05T02:53:58;38.95;;;34.13;;
57846;SDS011;43675;50.030;21.952;2022-12-05T02:56:27;37.58;;;33.48;;
57846;SDS011;43675;50.030;21.952;2022-12-05T02:58:56;38.80;;;33.55;;
57846;SDS011;43675;50.030;21.952;2022-12-05T03:01:22;37.35;;;32.53;;
57846;SDS011;43675;50.030;21.952;2022-12-05T03:03:50;38.83;;;33.40;;
57846;SDS011;43675;50.030;21.952;2022-12-05T03:09:01;36.80;;;32.67;;
57846;SDS011;43675;50.030;21.952;2022-12-05T03:11:40;37.50;;;33.45;;
57846;SDS011;43675;50.030;21.952;2022-12-05T03:14:05;36.90;;;32.88;;
57846;SDS011;43675;50.030;21.952;2022-12-05T03:16:35;36.58;;;32.40;;
57846;SDS011;43675;50.030;21.952;2022-12-05T03:19:11;36.65;;;32.80;;
57846;SDS011;43675;50.030;21.952;2022-12-05T03:21:46;37.08;;;33.23;;
57846;SDS011;43675;50.030;21.952;2022-12-05T03:24:12;35.98;;;32.15;;
57846;SDS011;43675;50.030;21.952;2022-12-05T03:35:21;36.00;;;32.20;;
57846;SDS011;43675;50.030;21.952;2022-12-05T03:37:57;36.48;;;32.48;;
57846;SDS011;43675;50.030;21.952;2022-12-05T03:43:21;35.80;;;31.27;;
57846;SDS011;43675;50.030;21.952;2022-12-05T03:45:56;34.65;;;30.00;;
57846;SDS011;43675;50.030;21.952;2022-12-05T03:48:28;36.75;;;30.52;;
57846;SDS011;43675;50.030;21.952;2022-12-05T03:50:56;35.90;;;32.03;;
57846;SDS011;43675;50.030;21.952;2022-12-05T03:53:24;33.80;;;30.23;;
57846;SDS011;43675;50.030;21.952;2022-12-05T03:56:04;36.10;;;31.42;;
57846;SDS011;43675;50.030;21.952;2022-12-05T03:58:39;35.20;;;31.30;;
57846;SDS011;43675;50.030;21.952;2022-12-05T04:01:04;38.67;;;32.48;;
57846;SDS011;43675;50.030;21.952;2022-12-05T04:03:36;39.15;;;32.28;;
57846;SDS011;43675;50.030;21.952;2022-12-05T04:06:41;41.05;;;31.87;;
57846;SDS011;43675;50.030;21.952;2022-12-05T04:08:50;37.58;;;31.37;;
57846;SDS011;43675;50.030;21.952;2022-12-05T04:11:22;36.70;;;31.40;;
57846;SDS011;43675;50.030;21.952;2022-12-05T04:13:54;37.00;;;32.08;;
57846;SDS011;43675;50.030;21.952;2022-12-05T04:16:33;34.85;;;31.07;;
57846;SDS011;43675;50.030;21.952;2022-12-05T04:19:08;37.48;;;31.00;;
57846;SDS011;43675;50.030;21.952;2022-12-05T04:21:39;38.45;;;32.08;;
57846;SDS011;43675;50.030;21.952;2022-12-05T04:24:15;37.48;;;32.23;;
57846;SDS011;43675;50.030;21.952;2022-12-05T04:27:05;35.68;;;31.42;;
57846;SDS011;43675;50.030;21.952;2022-12-05T04:30:00;36.90;;;31.35;;
57846;SDS011;43675;50.030;21.952;2022-12-05T04:32:29;38.53;;;31.93;;
57846;SDS011;43675;50.030;21.952;2022-12-05T04:34:57;41.05;;;32.88;;
57846;SDS011;43675;50.030;21.952;2022-12-05T04:37:26;40.90;;;32.50;;
57846;SDS011;43675;50.030;21.952;2022-12-05T04:39:57;41.40;;;31.97;;
57846;SDS011;43675;50.030;21.952;2022-12-05T04:42:25;41.33;;;32.50;;
57846;SDS011;43675;50.030;21.952;2022-12-05T04:44:54;40.50;;;33.05;;
57846;SDS011;43675;50.030;21.952;2022-12-05T04:47:27;39.67;;;33.20;;
57846;SDS011;43675;50.030;21.952;2022-12-05T04:49:55;39.03;;;33.15;;
57846;SDS011;43675;50.030;21.952;2022-12-05T04:52:23;36.25;;;32.25;;
57846;SDS011;43675;50.030;21.952;2022-12-05T04:54:52;38.05;;;32.55;;
57846;SDS011;43675;50.030;21.952;2022-12-05T04:57:23;38.48;;;33.13;;
57846;SDS011;43675;50.030;21.952;2022-12-05T05:00:01;40.28;;;32.98;;
57846;SDS011;43675;50.030;21.952;2022-12-05T05:02:32;41.55;;;33.42;;
57846;SDS011;43675;50.030;21.952;2022-12-05T05:05:00;39.08;;;33.38;;
57846;SDS011;43675;50.030;21.952;2022-12-05T05:07:29;37.45;;;33.53;;
57846;SDS011;43675;50.030;21.952;2022-12-05T05:09:55;41.40;;;34.98;;
57846;SDS011;43675;50.030;21.952;2022-12-05T05:12:21;39.83;;;35.03;;
57846;SDS011;43675;50.030;21.952;2022-12-05T05:14:47;36.38;;;32.48;;
57846;SDS011;43675;50.030;21.952;2022-12-05T05:17:19;40.28;;;34.73;;
57846;SDS011;43675;50.030;21.952;2022-12-05T05:19:45;35.92;;;32.00;;
57846;SDS011;43675;50.030;21.952;2022-12-05T05:22:11;38.02;;;33.25;;
57846;SDS011;43675;50.030;21.952;2022-12-05T05:24:36;38.98;;;33.02;;
57846;SDS011;43675;50.030;21.952;2022-12-05T05:27:02;40.98;;;33.40;;
57846;SDS011;43675;50.030;21.952;2022-12-05T05:29:28;41.42;;;33.58;;
57846;SDS011;43675;50.030;21.952;2022-12-05T05:31:54;42.67;;;33.95;;
57846;SDS011;43675;50.030;21.952;2022-12-05T05:34:19;43.25;;;34.25;;
57846;SDS011;43675;50.030;21.952;2022-12-05T05:36:52;42.62;;;34.67;;
57846;SDS011;43675;50.030;21.952;2022-12-05T05:39:17;41.20;;;34.00;;
57846;SDS011;43675;50.030;21.952;2022-12-05T05:41:43;45.17;;;35.10;;
57846;SDS011;43675;50.030;21.952;2022-12-05T05:44:09;43.78;;;33.85;;
57846;SDS011;43675;50.030;21.952;2022-12-05T05:46:41;43.68;;;34.15;;
57846;SDS011;43675;50.030;21.952;2022-12-05T05:49:07;37.50;;;33.30;;
57846;SDS011;43675;50.030;21.952;2022-12-05T05:51:32;43.52;;;35.85;;
57846;SDS011;43675;50.030;21.952;2022-12-05T05:53:58;38.42;;;33.13;;
57846;SDS011;43675;50.030;21.952;2022-12-05T05:56:24;38.55;;;34.00;;
57846;SDS011;43675;50.030;21.952;2022-12-05T05:58:58;37.63;;;33.55;;
57846;SDS011;43675;50.030;21.952;2022-12-05T06:01:26;38.67;;;33.88;;
57846;SDS011;43675;50.030;21.952;2022-12-05T06:03:52;37.65;;;33.05;;
57846;SDS011;43675;50.030;21.952;2022-12-05T06:06:19;38.60;;;33.00;;
57846;SDS011;43675;50.030;21.952;2022-12-05T06:08:45;41.65;;;33.63;;
57846;SDS011;43675;50.030;21.952;2022-12-05T06:11:12;40.03;;;32.88;;
57846;SDS011;43675;50.030;21.952;2022-12-05T06:13:40;37.35;;;31.25;;
57846;SDS011;43675;50.030;21.952;2022-12-05T06:16:07;36.60;;;32.05;;
57846;SDS011;43675;50.030;21.952;2022-12-05T06:18:34;40.10;;;32.88;;
57846;SDS011;43675;50.030;21.952;2022-12-05T06:21:08;38.35;;;31.20;;
57846;SDS011;43675;50.030;21.952;2022-12-05T06:23:35;39.88;;;31.73;;
57846;SDS011;43675;50.030;21.952;2022-12-05T06:26:02;39.80;;;33.35;;
57846;SDS011;43675;50.030;21.952;2022-12-05T06:28:30;40.28;;;33.60;;
57846;SDS011;43675;50.030;21.952;2022-12-05T06:30:56;43.30;;;34.03;;
57846;SDS011;43675;50.030;21.952;2022-12-05T06:33:22;39.20;;;32.63;;
57846;SDS011;43675;50.030;21.952;2022-12-05T06:35:48;37.85;;;32.60;;
57846;SDS011;43675;50.030;21.952;2022-12-05T06:38:16;40.70;;;33.08;;
57846;SDS011;43675;50.030;21.952;2022-12-05T06:40:42;40.38;;;32.73;;
57846;SDS011;43675;50.030;21.952;2022-12-05T06:43:09;38.23;;;31.82;;
57846;SDS011;43675;50.030;21.952;2022-12-05T06:45:38;39.38;;;32.08;;
57846;SDS011;43675;50.030;21.952;2022-12-05T06:48:11;38.53;;;30.75;;
57846;SDS011;43675;50.030;21.952;2022-12-05T06:50:36;41.63;;;33.15;;
57846;SDS011;43675;50.030;21.952;2022-12-05T06:53:02;39.63;;;32.28;;
57846;SDS011;43675;50.030;21.952;2022-12-05T06:55:28;39.83;;;32.70;;
57846;SDS011;43675;50.030;21.952;2022-12-05T06:57:53;41.08;;;33.18;;
57846;SDS011;43675;50.030;21.952;2022-12-05T07:00:19;37.10;;;32.80;;
57846;SDS011;43675;50.030;21.952;2022-12-05T07:02:45;39.63;;;33.80;;
57846;SDS011;43675;50.030;21.952;2022-12-05T07:05:11;39.00;;;32.42;;
57846;SDS011;43675;50.030;21.952;2022-12-05T07:07:37;42.27;;;33.05;;
57846;SDS011;43675;50.030;21.952;2022-12-05T07:10:03;39.18;;;32.85;;
57846;SDS011;43675;50.030;21.952;2022-12-05T07:12:30;39.42;;;32.10;;
57846;SDS011;43675;50.030;21.952;2022-12-05T07:14:57;39.95;;;32.85;;
57846;SDS011;43675;50.030;21.952;2022-12-05T07:17:29;39.98;;;32.93;;
57846;SDS011;43675;50.030;21.952;2022-12-05T07:19:59;41.75;;;33.48;;
57846;SDS011;43675;50.030;21.952;2022-12-05T07:22:33;35.25;;;31.33;;
57846;SDS011;43675;50.030;21.952;2022-12-05T07:25:00;38.05;;;30.15;;
57846;SDS011;43675;50.030;21.952;2022-12-05T07:27:25;40.17;;;31.50;;
57846;SDS011;43675;50.030;21.952;2022-12-05T07:29:51;36.53;;;30.00;;
57846;SDS011;43675;50.030;21.952;2022-12-05T07:32:17;38.20;;;30.50;;
57846;SDS011;43675;50.030;21.952;2022-12-05T07:34:49;37.55;;;30.15;;
57846;SDS011;43675;50.030;21.952;2022-12-05T07:37:14;37.40;;;29.92;;
57846;SDS011;43675;50.030;21.952;2022-12-05T07:39:40;33.02;;;28.55;;
57846;SDS011;43675;50.030;21.952;2022-12-05T07:42:06;34.38;;;28.80;;
57846;SDS011;43675;50.030;21.952;2022-12-05T07:44:31;33.33;;;28.65;;
57846;SDS011;43675;50.030;21.952;2022-12-05T07:47:04;34.73;;;29.42;;
57846;SDS011;43675;50.030;21.952;2022-12-05T07:49:29;34.15;;;29.87;;
57846;SDS011;43675;50.030;21.952;2022-12-05T07:51:55;34.65;;;28.60;;
57846;SDS011;43675;50.030;21.952;2022-12-05T07:54:21;36.08;;;28.98;;
57846;SDS011;43675;50.030;21.952;2022-12-05T07:56:46;38.05;;;30.15;;
57846;SDS011;43675;50.030;21.952;2022-12-05T07:59:12;32.78;;;28.55;;
57846;SDS011;43675;50.030;21.952;2022-12-05T08:01:38;31.55;;;28.12;;
57846;SDS011;43675;50.030;21.952;2022-12-05T08:04:03;34.27;;;28.87;;
57846;SDS011;43675;50.030;21.952;2022-12-05T08:06:29;31.95;;;26.65;;
57846;SDS011;43675;50.030;21.952;2022-12-05T08:08:57;32.00;;;27.25;;
57846;SDS011;43675;50.030;21.952;2022-12-05T08:11:28;33.25;;;26.75;;
57846;SDS011;43675;50.030;21.952;2022-12-05T08:13:52;33.85;;;27.32;;
57846;SDS011;43675;50.030;21.952;2022-12-05T08:16:19;33.45;;;27.17;;
57846;SDS011;43675;50.030;21.952;2022-12-05T08:18:47;33.67;;;27.32;;
57846;SDS011;43675;50.030;21.952;2022-12-05T08:21:13;31.15;;;25.57;;
57846;SDS011;43675;50.030;21.952;2022-12-05T08:23:41;30.23;;;25.65;;
57846;SDS011;43675;50.030;21.952;2022-12-05T08:26:08;32.20;;;26.33;;
57846;SDS011;43675;50.030;21.952;2022-12-05T08:28:43;35.40;;;26.97;;
57846;SDS011;43675;50.030;21.952;2022-12-05T08:31:14;35.90;;;27.62;;
57846;SDS011;43675;50.030;21.952;2022-12-05T08:33:47;37.23;;;29.27;;
57846;SDS011;43675;50.030;21.952;2022-12-05T08:36:14;36.23;;;28.65;;
57846;SDS011;43675;50.030;21.952;2022-12-05T08:38:47;37.70;;;27.95;;
57846;SDS011;43675;50.030;21.952;2022-12-05T08:41:14;37.83;;;29.32;;
57846;SDS011;43675;50.030;21.952;2022-12-05T08:43:42;35.50;;;27.73;;
57846;SDS011;43675;50.030;21.952;2022-12-05T08:46:09;41.55;;;29.37;;
57846;SDS011;43675;50.030;21.952;2022-12-05T08:48:35;38.70;;;29.52;;
57846;SDS011;43675;50.030;21.952;2022-12-05T08:51:06;40.70;;;29.52;;
57846;SDS011;43675;50.030;21.952;2022-12-05T08:53:34;41.18;;;30.30;;
57846;SDS011;43675;50.030;21.952;2022-12-05T08:56:21;40.30;;;31.27;;
57846;SDS011;43675;50.030;21.952;2022-12-05T08:58:47;41.40;;;30.43;;
57846;SDS011;43675;50.030;21.952;2022-12-05T09:01:18;42.80;;;30.65;;
57846;SDS011;43675;50.030;21.952;2022-12-05T09:03:43;41.98;;;31.27;;
57846;SDS011;43675;50.030;21.952;2022-12-05T09:08:41;43.70;;;30.77;;
57846;SDS011;43675;50.030;21.952;2022-12-05T09:11:09;46.77;;;31.40;;
57846;SDS011;43675;50.030;21.952;2022-12-05T09:13:37;55.08;;;32.80;;
57846;SDS011;43675;50.030;21.952;2022-12-05T09:16:12;71.80;;;37.90;;
57846;SDS011;43675;50.030;21.952;2022-12-05T09:18:35;59.75;;;36.05;;
57846;SDS011;43675;50.030;21.952;2022-12-05T09:21:10;45.08;;;30.92;;
57846;SDS011;43675;50.030;21.952;2022-12-05T09:23:41;42.10;;;30.23;;
57846;SDS011;43675;50.030;21.952;2022-12-05T09:26:09;39.70;;;30.40;;
57846;SDS011;43675;50.030;21.952;2022-12-05T09:28:43;39.38;;;29.30;;
57846;SDS011;43675;50.030;21.952;2022-12-05T09:31:10;43.55;;;30.57;;
57846;SDS011;43675;50.030;21.952;2022-12-05T09:33:45;45.65;;;31.62;;
57846;SDS011;43675;50.030;21.952;2022-12-05T09:36:19;49.75;;;32.53;;
57846;SDS011;43675;50.030;21.952;2022-12-05T09:38:46;41.40;;;30.35;;
57846;SDS011;43675;50.030;21.952;2022-12-05T09:41:43;42.55;;;29.40;;
57846;SDS011;43675;50.030;21.952;2022-12-05T09:47:28;40.67;;;30.72;;
57846;SDS011;43675;50.030;21.952;2022-12-05T09:50:26;43.20;;;30.70;;
57846;SDS011;43675;50.030;21.952;2022-12-05T09:53:11;39.67;;;29.77;;
57846;SDS011;43675;50.030;21.952;2022-12-05T09:55:54;43.42;;;30.02;;
57846;SDS011;43675;50.030;21.952;2022-12-05T09:58:25;44.08;;;29.85;;
57846;SDS011;43675;50.030;21.952;2022-12-05T10:00:57;39.42;;;29.77;;
57846;SDS011;43675;50.030;21.952;2022-12-05T10:11:44;39.15;;;28.92;;
57846;SDS011;43675;50.030;21.952;2022-12-05T10:14:19;35.78;;;29.00;;
57846;SDS011;43675;50.030;21.952;2022-12-05T10:17:03;39.65;;;29.75;;
57846;SDS011;43675;50.030;21.952;2022-12-05T10:19:32;40.65;;;29.80;;
57846;SDS011;43675;50.030;21.952;2022-12-05T10:22:01;39.60;;;29.60;;
57846;SDS011;43675;50.030;21.952;2022-12-05T10:24:43;41.88;;;28.77;;
57846;SDS011;43675;50.030;21.952;2022-12-05T10:27:18;37.35;;;28.25;;
57846;SDS011;43675;50.030;21.952;2022-12-05T10:29:57;36.98;;;28.32;;
57846;SDS011;43675;50.030;21.952;2022-12-05T10:32:30;39.38;;;29.02;;
57846;SDS011;43675;50.030;21.952;2022-12-05T10:35:37;39.60;;;28.75;;
57846;SDS011;43675;50.030;21.952;2022-12-05T10:37:42;42.55;;;29.55;;
57846;SDS011;43675;50.030;21.952;2022-12-05T10:40:10;39.20;;;29.37;;
57846;SDS011;43675;50.030;21.952;2022-12-05T10:42:37;44.95;;;30.57;;
57846;SDS011;43675;50.030;21.952;2022-12-05T10:45:04;43.85;;;30.72;;
57846;SDS011;43675;50.030;21.952;2022-12-05T10:47:33;42.75;;;30.75;;
57846;SDS011;43675;50.030;21.952;2022-12-05T10:50:04;42.75;;;31.17;;
57846;SDS011;43675;50.030;21.952;2022-12-05T10:52:32;43.73;;;31.37;;
57846;SDS011;43675;50.030;21.952;2022-12-05T10:55:02;44.35;;;33.18;;
57846;SDS011;43675;50.030;21.952;2022-12-05T10:57:28;46.13;;;32.00;;
57846;SDS011;43675;50.030;21.952;2022-12-05T10:59:54;43.40;;;31.45;;
57846;SDS011;43675;50.030;21.952;2022-12-05T11:02:22;41.75;;;30.50;;
57846;SDS011;43675;50.030;21.952;2022-12-05T11:04:50;33.90;;;26.95;;
57846;SDS011;43675;50.030;21.952;2022-12-05T11:07:25;24.05;;;21.27;;
57846;SDS011;43675;50.030;21.952;2022-12-05T11:09:52;23.87;;;21.35;;
57846;SDS011;43675;50.030;21.952;2022-12-05T11:12:26;23.73;;;21.27;;
57846;SDS011;43675;50.030;21.952;2022-12-05T11:15:02;24.05;;;20.72;;
57846;SDS011;43675;50.030;21.952;2022-12-05T11:17:30;23.05;;;20.95;;
57846;SDS011;43675;50.030;21.952;2022-12-05T11:19:58;21.93;;;19.92;;
57846;SDS011;43675;50.030;21.952;2022-12-05T11:22:31;22.30;;;20.25;;
57846;SDS011;43675;50.030;21.952;2022-12-05T11:25:27;22.40;;;20.37;;
57846;SDS011;43675;50.030;21.952;2022-12-05T11:28:20;21.95;;;19.90;;
57846;SDS011;43675;50.030;21.952;2022-12-05T11:33:25;21.65;;;19.62;;
57846;SDS011;43675;50.030;21.952;2022-12-05T11:35:54;21.27;;;19.37;;
57846;SDS011;43675;50.030;21.952;2022-12-05T11:38:23;21.37;;;19.37;;
57846;SDS011;43675;50.030;21.952;2022-12-05T11:41:00;21.23;;;19.05;;
57846;SDS011;43675;50.030;21.952;2022-12-05T11:43:43;20.17;;;18.17;;
57846;SDS011;43675;50.030;21.952;2022-12-05T11:46:27;20.30;;;18.30;;
57846;SDS011;43675;50.030;21.952;2022-12-05T11:48:58;20.82;;;18.80;;
57846;SDS011;43675;50.030;21.952;2022-12-05T11:51:28;19.98;;;17.85;;
57846;SDS011;43675;50.030;21.952;2022-12-05T11:56:41;21.25;;;19.35;;
57846;SDS011;43675;50.030;21.952;2022-12-05T12:01:54;20.52;;;18.62;;
57846;SDS011;43675;50.030;21.952;2022-12-05T12:04:23;20.32;;;18.32;;
57846;SDS011;43675;50.030;21.952;2022-12-05T12:12:48;22.62;;;20.60;;
57846;SDS011;43675;50.030;21.952;2022-12-05T12:20:55;22.27;;;20.27;;
57846;SDS011;43675;50.030;21.952;2022-12-05T12:23:44;21.87;;;20.02;;
57846;SDS011;43675;50.030;21.952;2022-12-05T12:29:23;21.35;;;19.55;;
57846;SDS011;43675;50.030;21.952;2022-12-05T12:34:48;21.82;;;19.98;;
57846;SDS011;43675;50.030;21.952;2022-12-05T12:37:47;21.40;;;19.62;;
57846;SDS011;43675;50.030;21.952;2022-12-05T12:40:31;23.77;;;21.62;;
57846;SDS011;43675;50.030;21.952;2022-12-05T12:46:10;22.65;;;20.45;;
57846;SDS011;43675;50.030;21.952;2022-12-05T12:48:40;24.43;;;22.02;;
57846;SDS011;43675;50.030;21.952;2022-12-05T12:51:24;24.00;;;21.80;;
57846;SDS011;43675;50.030;21.952;2022-12-05T12:53:56;24.63;;;22.42;;
57846;SDS011;43675;50.030;21.952;2022-12-05T12:59:24;24.23;;;22.05;;
57846;SDS011;43675;50.030;21.952;2022-12-05T13:04:49;22.27;;;20.20;;
57846;SDS011;43675;50.030;21.952;2022-12-05T13:07:29;23.25;;;21.05;;
57846;SDS011;43675;50.030;21.952;2022-12-05T13:10:00;24.18;;;21.80;;
57846;SDS011;43675;50.030;21.952;2022-12-05T13:12:36;24.57;;;22.07;;
57846;SDS011;43675;50.030;21.952;2022-12-05T13:15:05;22.32;;;20.35;;
57846;SDS011;43675;50.030;21.952;2022-12-05T13:17:33;21.77;;;19.90;;
57846;SDS011;43675;50.030;21.952;2022-12-05T13:20:00;21.70;;;19.92;;
57846;SDS011;43675;50.030;21.952;2022-12-05T13:22:26;21.82;;;19.92;;
57846;SDS011;43675;50.030;21.952;2022-12-05T13:25:00;22.37;;;20.40;;
57846;SDS011;43675;50.030;21.952;2022-12-05T13:27:25;23.22;;;21.05;;
57846;SDS011;43675;50.030;21.952;2022-12-05T13:29:54;21.97;;;20.10;;
57846;SDS011;43675;50.030;21.952;2022-12-05T13:32:23;20.92;;;19.30;;
57846;SDS011;43675;50.030;21.952;2022-12-05T13:34:54;20.23;;;18.55;;
57846;SDS011;43675;50.030;21.952;2022-12-05T13:37:26;20.68;;;19.00;;
57846;SDS011;43675;50.030;21.952;2022-12-05T13:39:56;20.57;;;18.87;;
57846;SDS011;43675;50.030;21.952;2022-12-05T13:42:27;19.50;;;17.85;;
57846;SDS011;43675;50.030;21.952;2022-12-05T13:45:25;21.52;;;19.42;;
57846;SDS011;43675;50.030;21.952;2022-12-05T13:53:19;20.70;;;18.80;;
57846;SDS011;43675;50.030;21.952;2022-12-05T14:03:54;22.37;;;20.08;;
57846;SDS011;43675;50.030;21.952;2022-12-05T14:09:26;22.55;;;20.25;;
57846;SDS011;43675;50.030;21.952;2022-12-05T14:19:59;23.35;;;20.82;;
57846;SDS011;43675;50.030;21.952;2022-12-05T14:27:55;25.97;;;19.82;;
57846;SDS011;43675;50.030;21.952;2022-12-05T14:30:24;23.30;;;20.45;;
57846;SDS011;43675;50.030;21.952;2022-12-05T14:32:51;23.70;;;20.57;;
57846;SDS011;43675;50.030;21.952;2022-12-05T14:35:24;22.82;;;20.35;;
57846;SDS011;43675;50.030;21.952;2022-12-05T14:38:00;21.87;;;19.60;;
57846;SDS011;43675;50.030;21.952;2022-12-05T14:43:15;25.10;;;20.50;;
57846;SDS011;43675;50.030;21.952;2022-12-05T14:46:00;19.75;;;17.65;;
57846;SDS011;43675;50.030;21.952;2022-12-05T14:48:32;21.62;;;19.25;;
57846;SDS011;43675;50.030;21.952;2022-12-05T14:51:01;21.55;;;19.12;;
57846;SDS011;43675;50.030;21.952;2022-12-05T14:53:29;21.17;;;18.98;;
57846;SDS011;43675;50.030;21.952;2022-12-05T14:58:57;20.25;;;18.27;;
57846;SDS011;43675;50.030;21.952;2022-12-05T15:01:26;20.75;;;18.85;;
57846;SDS011;43675;50.030;21.952;2022-12-05T15:09:52;19.52;;;17.87;;
57846;SDS011;43675;50.030;21.952;2022-12-05T15:12:32;19.98;;;18.20;;
57846;SDS011;43675;50.030;21.952;2022-12-05T15:17:47;19.90;;;18.27;;
57846;SDS011;43675;50.030;21.952;2022-12-05T15:20:20;20.20;;;18.50;;
57846;SDS011;43675;50.030;21.952;2022-12-05T15:25:26;20.08;;;18.37;;
57846;SDS011;43675;50.030;21.952;2022-12-05T15:27:55;23.20;;;20.90;;
57846;SDS011;43675;50.030;21.952;2022-12-05T15:30:23;22.45;;;20.27;;
57846;SDS011;43675;50.030;21.952;2022-12-05T15:32:50;20.60;;;18.65;;
57846;SDS011;43675;50.030;21.952;2022-12-05T15:35:18;21.57;;;19.57;;
57846;SDS011;43675;50.030;21.952;2022-12-05T15:37:53;20.90;;;18.95;;
57846;SDS011;43675;50.030;21.952;2022-12-05T15:40:24;19.20;;;17.50;;
57846;SDS011;43675;50.030;21.952;2022-12-05T15:42:56;20.40;;;18.45;;
57846;SDS011;43675;50.030;21.952;2022-12-05T15:45:23;20.92;;;19.00;;
57846;SDS011;43675;50.030;21.952;2022-12-05T15:48:09;22.60;;;20.40;;
57846;SDS011;43675;50.030;21.952;2022-12-05T15:50:30;21.33;;;19.32;;
57846;SDS011;43675;50.030;21.952;2022-12-05T15:53:12;21.62;;;19.50;;
57846;SDS011;43675;50.030;21.952;2022-12-05T15:58:32;22.45;;;20.23;;
57846;SDS011;43675;50.030;21.952;2022-12-05T16:01:09;23.12;;;20.70;;
57846;SDS011;43675;50.030;21.952;2022-12-05T16:03:38;26.20;;;22.60;;
57846;SDS011;43675;50.030;21.952;2022-12-05T16:08:46;33.23;;;25.15;;
57846;SDS011;43675;50.030;21.952;2022-12-05T16:11:13;49.33;;;37.80;;
57846;SDS011;43675;50.030;21.952;2022-12-05T16:13:44;55.45;;;39.20;;
57846;SDS011;43675;50.030;21.952;2022-12-05T16:16:16;50.25;;;37.00;;
57846;SDS011;43675;50.030;21.952;2022-12-05T16:18:54;50.28;;;36.40;;
57846;SDS011;43675;50.030;21.952;2022-12-05T16:21:26;48.13;;;37.03;;
57846;SDS011;43675;50.030;21.952;2022-12-05T16:24:07;49.88;;;36.88;;
57846;SDS011;43675;50.030;21.952;2022-12-05T16:26:38;48.60;;;36.08;;
57846;SDS011;43675;50.030;21.952;2022-12-05T16:29:05;46.60;;;35.00;;
57846;SDS011;43675;50.030;21.952;2022-12-05T16:31:33;46.73;;;37.20;;
57846;SDS011;43675;50.030;21.952;2022-12-05T16:34:06;48.95;;;38.10;;
57846;SDS011;43675;50.030;21.952;2022-12-05T16:36:34;53.58;;;36.55;;
57846;SDS011;43675;50.030;21.952;2022-12-05T16:39:03;49.88;;;35.58;;
57846;SDS011;43675;50.030;21.952;2022-12-05T16:41:38;49.23;;;36.28;;